createdAt,value
2023-03-06T00:01:02.528Z,13.20
2023-03-06T00:06:04.933Z,8.82
2023-03-06T00:11:07.250Z,10.80
2023-03-06T00:16:10.308Z,9.10
2023-03-06T00:21:12.503Z,11.00
2023-03-06T00:26:14.690Z,10.98
2023-03-06T00:31:16.960Z,8.43
2023-03-06T00:36:19.227Z,13.15
2023-03-06T00:41:21.556Z,13.43
2023-03-06T00:46:24.039Z,17.50
2023-03-06T00:51:26.404Z,11.65
2023-03-06T00:56:28.682Z,11.38
2023-03-06T01:01:30.877Z,7.20
2023-03-06T01:06:33.080Z,9.68
2023-03-06T01:11:35.244Z,8.75
2023-03-06T01:16:37.598Z,8.10
2023-03-06T01:21:39.909Z,6.65
2023-03-06T01:26:42.051Z,6.90
2023-03-06T01:31:44.377Z,6.28
2023-03-06T01:36:46.567Z,8.38
2023-03-06T01:41:49.079Z,8.88
2023-03-06T01:46:51.385Z,17.15
2023-03-06T01:52:02.372Z,19.55
2023-03-06T01:57:09.944Z,10.82
2023-03-06T02:02:16.025Z,9.43
2023-03-06T02:07:21.221Z,9.40
2023-03-06T02:12:24.296Z,8.70
2023-03-06T02:17:27.983Z,8.05
2023-03-06T02:22:49.018Z,10.40
2023-03-06T02:27:51.155Z,10.55
2023-03-06T02:32:53.589Z,9.40
2023-03-06T02:37:58.144Z,10.55
2023-03-06T02:43:00.356Z,10.85
2023-03-06T02:48:03.467Z,11.13
2023-03-06T02:53:06.785Z,11.90
2023-03-06T02:58:09.871Z,13.73
2023-03-06T03:03:12.138Z,20.23
2023-03-06T03:08:14.350Z,20.20
2023-03-06T03:13:16.559Z,32.70
2023-03-06T03:18:18.648Z,21.98
2023-03-06T03:23:21.220Z,18.33
2023-03-06T03:28:23.474Z,16.90
2023-03-06T03:33:26.267Z,15.07
2023-03-06T03:38:28.759Z,13.98
2023-03-06T03:43:31.268Z,14.45
2023-03-06T03:48:33.650Z,12.90
2023-03-06T03:53:35.892Z,22.25
2023-03-06T03:58:38.075Z,22.48
2023-03-06T04:03:40.311Z,16.80
2023-03-06T04:08:42.772Z,13.00
2023-03-06T04:13:45.016Z,21.15
2023-03-06T04:18:47.113Z,16.77
2023-03-06T04:23:49.238Z,11.68
2023-03-06T04:28:51.393Z,22.23
2023-03-06T04:33:53.669Z,15.57
2023-03-06T04:38:56.299Z,13.60
2023-03-06T04:43:58.450Z,14.00
2023-03-06T04:49:00.646Z,10.48
2023-03-06T04:54:04.195Z,11.88
2023-03-06T04:59:06.359Z,18.55
2023-03-06T05:04:08.465Z,19.55
2023-03-06T05:09:10.669Z,13.55
2023-03-06T05:14:12.947Z,32.53
2023-03-06T05:19:15.709Z,15.73
2023-03-06T05:24:17.828Z,28.15
2023-03-06T05:29:20.130Z,28.75
2023-03-06T05:34:22.366Z,19.05
2023-03-06T05:39:24.526Z,20.48
2023-03-06T05:44:32.526Z,20.98
2023-03-06T05:49:36.225Z,25.67
2023-03-06T05:54:38.676Z,27.90
2023-03-06T05:59:40.898Z,21.25
2023-03-06T06:04:43.965Z,27.77
2023-03-06T06:09:47.088Z,15.70
2023-03-06T06:14:49.709Z,20.50
2023-03-06T06:19:51.912Z,21.42
2023-03-06T06:24:54.063Z,14.88
2023-03-06T06:29:56.204Z,23.65
2023-03-06T06:34:58.598Z,31.85
2023-03-06T06:40:00.725Z,12.18
2023-03-06T06:45:05.603Z,20.13
2023-03-06T06:50:14.277Z,14.52
2023-03-06T06:55:16.894Z,36.70
2023-03-06T07:00:19.703Z,29.95
2023-03-06T07:05:22.243Z,20.48
2023-03-06T07:10:24.406Z,33.33
2023-03-06T07:15:27.759Z,33.17
2023-03-06T07:20:30.055Z,21.80
2023-03-06T07:25:32.377Z,28.83
2023-03-06T07:30:34.591Z,25.25
2023-03-06T07:35:36.931Z,23.77
2023-03-06T07:40:39.513Z,30.23
2023-03-06T07:45:41.732Z,23.55
2023-03-06T07:50:44.044Z,23.35
2023-03-06T07:55:46.165Z,17.25
2023-03-06T08:00:48.405Z,14.77
2023-03-06T08:05:50.670Z,20.90
2023-03-06T08:10:53.236Z,25.02
2023-03-06T08:15:56.681Z,17.05
2023-03-06T08:21:09.708Z,14.57
2023-03-06T08:26:20.709Z,17.10
2023-03-06T08:31:31.310Z,16.17
2023-03-06T08:36:34.380Z,17.38
2023-03-06T08:41:37.604Z,17.48
2023-03-06T08:46:40.562Z,19.02
2023-03-06T08:51:43.385Z,13.80
2023-03-06T08:56:45.702Z,18.35
2023-03-06T09:01:48.267Z,15.25
2023-03-06T09:06:50.765Z,9.15
2023-03-06T09:11:53.973Z,9.50
2023-03-06T09:16:56.310Z,10.50
2023-03-06T09:22:01.262Z,7.30
2023-03-06T09:27:04.966Z,8.55
2023-03-06T09:32:07.575Z,7.50
2023-03-06T09:37:09.765Z,6.18
2023-03-06T09:42:19.221Z,4.78
2023-03-06T09:47:24.355Z,4.10
2023-03-06T09:52:43.860Z,5.65
2023-03-06T09:57:53.108Z,9.23
2023-03-06T10:03:10.778Z,3.38
2023-03-06T10:08:23.735Z,2.85
2023-03-06T10:13:33.136Z,2.92
2023-03-06T10:18:38.824Z,2.78
2023-03-06T10:24:05.017Z,4.68
2023-03-06T10:29:13.174Z,4.55
2023-03-06T10:34:29.107Z,2.63
2023-03-06T10:39:32.283Z,2.33
2023-03-06T10:44:34.718Z,1.95
2023-03-06T10:49:38.193Z,4.35
2023-03-06T10:54:42.688Z,6.82
2023-03-06T10:59:57.621Z,3.30
2023-03-06T11:05:03.087Z,3.78
2023-03-06T11:10:18.345Z,2.72
2023-03-06T11:15:25.167Z,2.92
2023-03-06T11:20:51.512Z,5.60
2023-03-06T11:26:15.869Z,2.13
2023-03-06T11:31:25.937Z,6.57
2023-03-06T11:36:57.380Z,4.00
2023-03-06T11:42:20.769Z,2.85
2023-03-06T11:47:43.086Z,3.63
2023-03-06T11:53:07.153Z,3.30
2023-03-06T11:58:30.511Z,3.85
2023-03-06T12:04:03.833Z,2.55
2023-03-06T12:09:15.128Z,14.65
2023-03-06T12:14:33.150Z,2.17
2023-03-06T12:19:47.261Z,3.90
2023-03-06T12:25:12.129Z,2.95
2023-03-06T12:31:03.114Z,1.60
2023-03-06T12:36:56.109Z,4.97
2023-03-06T12:42:22.882Z,3.80
2023-03-06T12:47:28.598Z,2.28
2023-03-06T12:52:33.591Z,4.43
2023-03-06T12:57:35.937Z,3.78
2023-03-06T13:03:24.618Z,4.93
2023-03-06T13:08:47.085Z,3.35
2023-03-06T13:13:49.530Z,5.60
2023-03-06T13:19:19.347Z,6.90
2023-03-06T13:24:27.176Z,5.00
2023-03-06T13:29:38.440Z,5.38
2023-03-06T13:34:52.074Z,3.25
2023-03-06T13:40:00.006Z,7.75
2023-03-06T13:45:27.654Z,2.53
2023-03-06T13:50:43.128Z,1.50
2023-03-06T13:56:19.930Z,2.53
2023-03-06T14:01:47.377Z,10.25
2023-03-06T14:07:04.405Z,3.63
2023-03-06T14:12:13.699Z,5.13
2023-03-06T14:17:34.799Z,4.55
2023-03-06T14:22:37.768Z,2.83
2023-03-06T14:27:50.381Z,4.03
2023-03-06T14:32:55.198Z,2.95
2023-03-06T14:38:04.957Z,4.28
2023-03-06T14:43:21.146Z,2.47
2023-03-06T14:48:25.730Z,4.88
2023-03-06T14:53:30.969Z,5.53
2023-03-06T14:58:45.523Z,6.05
2023-03-06T15:03:53.396Z,6.13
2023-03-06T15:09:07.264Z,2.95
2023-03-06T15:14:21.916Z,4.70
2023-03-06T15:19:24.363Z,4.63
2023-03-06T15:24:36.337Z,4.75
2023-03-06T15:29:39.484Z,3.42
2023-03-06T15:34:41.791Z,3.67
2023-03-06T15:39:46.808Z,4.40
2023-03-06T15:44:54.266Z,5.82
2023-03-06T15:49:57.268Z,4.43
2023-03-06T15:55:00.235Z,5.15
2023-03-06T16:00:03.716Z,4.30
2023-03-06T16:05:16.535Z,3.78
2023-03-06T16:10:21.784Z,6.25
2023-03-06T16:15:30.531Z,3.80
2023-03-06T16:20:33.846Z,4.65
2023-03-06T16:25:36.967Z,5.18
2023-03-06T16:30:39.208Z,3.55
2023-03-06T16:35:41.708Z,2.60
2023-03-06T16:40:44.200Z,5.20
2023-03-06T16:45:46.888Z,9.57
2023-03-06T16:50:49.377Z,4.53
2023-03-06T16:55:51.648Z,6.53
2023-03-06T17:00:54.920Z,4.22
2023-03-06T17:05:57.162Z,2.42
2023-03-06T17:10:59.782Z,5.15
2023-03-06T17:16:04.157Z,3.65
2023-03-06T17:21:08.969Z,5.35
2023-03-06T17:26:12.771Z,5.18
2023-03-06T17:31:23.753Z,6.28
2023-03-06T17:36:26.685Z,5.88
2023-03-06T17:41:29.709Z,6.05
2023-03-06T17:46:32.461Z,7.68
2023-03-06T17:51:34.677Z,5.68
2023-03-06T17:56:38.645Z,11.07
2023-03-06T18:01:41.675Z,12.07
2023-03-06T18:06:43.868Z,6.65
2023-03-06T18:11:46.180Z,7.47
2023-03-06T18:16:48.872Z,5.00
2023-03-06T18:21:51.022Z,7.70
2023-03-06T18:26:53.147Z,8.07
2023-03-06T18:31:57.208Z,3.83
2023-03-06T18:36:59.365Z,7.75
2023-03-06T18:42:02.741Z,6.93
2023-03-06T18:47:05.046Z,7.45
2023-03-06T18:52:07.346Z,7.47
2023-03-06T18:57:12.613Z,7.03
2023-03-06T19:02:15.621Z,6.22
2023-03-06T19:07:17.836Z,4.78
2023-03-06T19:12:20.561Z,8.20
2023-03-06T19:17:24.958Z,16.50
2023-03-06T19:22:27.322Z,8.55
2023-03-06T19:27:30.578Z,6.80
2023-03-06T19:32:33.586Z,3.30
2023-03-06T19:37:36.857Z,7.47
2023-03-06T19:42:39.286Z,7.80
2023-03-06T19:47:41.610Z,4.57
2023-03-06T19:52:43.809Z,4.65
2023-03-06T19:57:46.077Z,6.72
2023-03-06T20:02:48.236Z,4.10
2023-03-06T20:07:50.875Z,2.92
2023-03-06T20:12:53.555Z,5.90
2023-03-06T20:17:56.879Z,6.97
2023-03-06T20:23:04.592Z,6.55
2023-03-06T20:28:06.754Z,3.75
2023-03-06T20:33:09.426Z,2.95
2023-03-06T20:38:12.142Z,3.45
2023-03-06T20:43:14.382Z,5.25
2023-03-06T20:48:16.639Z,5.03
2023-03-06T20:53:19.516Z,8.20
2023-03-06T20:58:23.682Z,5.65
2023-03-06T21:03:26.042Z,3.92
2023-03-06T21:08:28.285Z,4.43
2023-03-06T21:13:30.514Z,5.22
2023-03-06T21:18:32.823Z,4.47
2023-03-06T21:23:35.153Z,7.53
2023-03-06T21:34:05.340Z,5.45
2023-03-06T21:39:07.848Z,9.27
2023-03-06T21:44:11.393Z,6.70
2023-03-06T21:49:19.075Z,7.93
2023-03-06T21:54:21.911Z,10.48
2023-03-06T21:59:24.360Z,6.13
2023-03-06T22:04:36.405Z,11.20
2023-03-06T22:09:38.835Z,11.63
2023-03-06T22:14:45.647Z,9.85
2023-03-06T22:19:50.429Z,23.88
2023-03-06T22:25:00.329Z,11.77
2023-03-06T22:30:03.730Z,16.23
2023-03-06T22:35:10.005Z,15.23
2023-03-06T22:40:14.528Z,14.93
2023-03-06T22:45:17.313Z,13.40
2023-03-06T22:50:19.580Z,12.15
2023-03-06T22:55:21.731Z,14.07
2023-03-06T23:00:24.053Z,14.25
2023-03-06T23:05:28.468Z,19.50
2023-03-06T23:10:31.510Z,10.43
2023-03-06T23:15:36.628Z,11.88
2023-03-06T23:20:45.424Z,8.32
2023-03-06T23:25:47.602Z,10.50
2023-03-06T23:30:49.886Z,11.88
2023-03-06T23:35:52.252Z,8.50
2023-03-06T23:40:54.464Z,7.00
2023-03-06T23:45:57.253Z,5.55
2023-03-06T23:50:59.631Z,4.57
2023-03-06T23:56:03.360Z,5.68
